^^
Station Historical Data
Daily Summary for January 11, 2019 Units:  Metric    English   Both
« Previous Day
Next Day »
Daily Weekly Monthly Yearly Custom
  High: Low: Average:
Temperature: -6.6 °C -12.1 °C -9.8 °C
Dew Point: -8.5 °C -13.8 °C -11.9 °C
Humidity: 90% 73% 84%
Wind Speed: 22.5km/h 0km/h 9.2km/h
Wind Gust: 24.1km/h - -
Wind- - SSW
Pressure: 1029.3 hPa 1018.2 hPa -
Precipitation: 0 mm    
Historical Graphs
 
 
Tabular Data for January 11, 2019
Time Temperature Dew Point Pressure Wind Wind Speed Wind Gust Humidity Rainfall Rate (Hourly) solar Conditions
00:04 -7 °C -9.1 °C 1018.2 hPa Calm     85% 0 mm 0.00 W/m2
00:09 -6.9 °C -9.1 °C 1018.5 hPa Calm     85% 0 mm 0.00 W/m2
00:14 -6.8 °C -8.9 °C 1018.5 hPa Calm     85% 0 mm 0.00 W/m2
00:19 -6.8 °C -8.7 °C 1018.5 hPa Calm     86% 0 mm 0.00 W/m2
00:24 -6.6 °C -8.7 °C 1018.5 hPa ESE 1.6 km/h 3.2 km/h 85% 0 mm 0.00 W/m2
00:29 -6.7 °C -8.8 °C 1018.2 hPa ESE 3.2 km/h 4.8 km/h 85% 0 mm 0.00 W/m2
00:34 -6.9 °C -9.1 °C 1018.5 hPa ESE 4.8 km/h 4.8 km/h 84% 0 mm 0.00 W/m2
00:39 -7.2 °C -9.4 °C 1018.5 hPa ESE 4.8 km/h 4.8 km/h 84% 0 mm 0.00 W/m2
00:44 -7.3 °C -9.4 °C 1018.5 hPa ESE 1.6 km/h 4.8 km/h 85% 0 mm 0.00 W/m2
00:49 -7 °C -8.9 °C 1018.5 hPa ESE 1.6 km/h 4.8 km/h 86% 0 mm 0.00 W/m2
00:54 -6.8 °C -8.9 °C 1018.5 hPa Calm   3.2 km/h 85% 0 mm 0.00 W/m2
00:59 -7.1 °C -9.3 °C 1018.5 hPa Calm   3.2 km/h 84% 0 mm 0.00 W/m2
01:04 -7.4 °C -9.6 °C 1018.8 hPa Calm     84% 0 mm 0.00 W/m2
01:09 -7.7 °C -9.9 °C 1018.8 hPa Calm     84% 0 mm 0.00 W/m2
01:14 -7.7 °C -9.6 °C 1018.8 hPa Calm     86% 0 mm 0.00 W/m2
01:19 -7.2 °C -9 °C 1018.8 hPa Calm   1.6 km/h 87% 0 mm 0.00 W/m2
01:24 -6.9 °C -8.7 °C 1018.8 hPa Calm   1.6 km/h 87% 0 mm 0.00 W/m2
01:29 -6.8 °C -8.6 °C 1018.8 hPa Calm     87% 0 mm 0.00 W/m2
01:34 -6.7 °C -8.5 °C 1018.8 hPa Calm     87% 0 mm 0.00 W/m2
01:39 -6.7 °C -8.7 °C 1018.8 hPa Calm     86% 0 mm 0.00 W/m2
01:44 -6.8 °C -8.7 °C 1018.8 hPa ESE 1.6 km/h 3.2 km/h 86% 0 mm 0.00 W/m2
01:49 -6.8 °C -8.8 °C 1018.8 hPa ESE 6.4 km/h 6.4 km/h 86% 0 mm 0.00 W/m2
01:54 -7 °C -8.9 °C 1018.8 hPa ESE 3.2 km/h 6.4 km/h 86% 0 mm 0.00 W/m2
01:59 -7.1 °C -9.1 °C 1019.2 hPa ESE 1.6 km/h 6.4 km/h 86% 0 mm 0.00 W/m2
02:04 -7.4 °C -9.5 °C 1019.2 hPa Calm   4.8 km/h 85% 0 mm 0.00 W/m2
02:09 -7.6 °C -9.7 °C 1019.2 hPa Calm   1.6 km/h 85% 0 mm 0.00 W/m2
02:14 -7.7 °C -9.6 °C 1019.2 hPa Calm     86% 0 mm 0.00 W/m2
02:19 -7.7 °C -9.7 °C 1019.2 hPa Calm     86% 0 mm 0.00 W/m2
02:24 -7.7 °C -9.4 °C 1019.2 hPa ESE 4.8 km/h 4.8 km/h 87% 0 mm 0.00 W/m2
02:29 -7.7 °C -9.4 °C 1019.5 hPa North 6.4 km/h 8 km/h 87% 0 mm 0.00 W/m2
02:34 -7.7 °C -9.4 °C 1019.5 hPa North 1.6 km/h 8 km/h 87% 0 mm 0.00 W/m2
02:39 -7.7 °C -9.4 °C 1019.5 hPa North 3.2 km/h 6.4 km/h 87% 0 mm 0.00 W/m2
02:44 -7.7 °C -9.5 °C 1019.5 hPa North 3.2 km/h 4.8 km/h 87% 0 mm 0.00 W/m2
02:49 -7.8 °C -9.6 °C 1019.5 hPa North 4.8 km/h 4.8 km/h 87% 0 mm 0.00 W/m2
02:54 -7.8 °C -9.6 °C 1019.5 hPa North 4.8 km/h 4.8 km/h 87% 0 mm 0.00 W/m2
02:59 -7.7 °C -9.3 °C 1019.5 hPa North 4.8 km/h 6.4 km/h 88% 0 mm 0.00 W/m2
03:04 -7.6 °C -9.3 °C 1019.5 hPa North 3.2 km/h 6.4 km/h 88% 0 mm 0.00 W/m2
03:09 -7.6 °C -9.3 °C 1019.5 hPa North 4.8 km/h 6.4 km/h 87% 0 mm 0.00 W/m2
03:14 -7.5 °C -9.3 °C 1019.5 hPa North 3.2 km/h 6.4 km/h 87% 0 mm 0.00 W/m2
03:19 -7.5 °C -9.3 °C 1019.5 hPa North 4.8 km/h 6.4 km/h 87% 0 mm 0.00 W/m2
03:24 -7.5 °C -9.3 °C 1019.5 hPa North 3.2 km/h 6.4 km/h 87% 0 mm 0.00 W/m2
03:29 -7.5 °C -9.3 °C 1019.5 hPa North 3.2 km/h 6.4 km/h 87% 0 mm 0.00 W/m2
03:34 -7.5 °C -9.3 °C 1019.5 hPa North 3.2 km/h 4.8 km/h 87% 0 mm 0.00 W/m2
03:39 -7.5 °C -9.3 °C 1019.5 hPa North 3.2 km/h 4.8 km/h 87% 0 mm 0.00 W/m2
03:44 -7.6 °C -9.3 °C 1019.5 hPa North 6.4 km/h 6.4 km/h 87% 0 mm 0.00 W/m2
03:49 -7.8 °C -9.6 °C 1019.5 hPa North 6.4 km/h 8 km/h 87% 0 mm 0.00 W/m2
03:54 -8.1 °C -9.8 °C 1019.5 hPa North 1.6 km/h 8 km/h 87% 0 mm 0.00 W/m2
03:59 -8.2 °C -9.9 °C 1019.5 hPa North 3.2 km/h 8 km/h 87% 0 mm 0.00 W/m2
04:04 -8.2 °C -9.9 °C 1019.5 hPa North 4.8 km/h 6.4 km/h 87% 0 mm 0.00 W/m2
04:09 -8.2 °C -10 °C 1019.5 hPa North 4.8 km/h 6.4 km/h 87% 0 mm 0.00 W/m2
04:14 -8.3 °C -10.1 °C 1019.5 hPa North 1.6 km/h 6.4 km/h 87% 0 mm 0.00 W/m2
04:19 -8.3 °C -9.9 °C 1019.5 hPa North 3.2 km/h 4.8 km/h 88% 0 mm 0.00 W/m2
04:24 -8.1 °C -9.7 °C 1019.5 hPa North 4.8 km/h 6.4 km/h 88% 0 mm 0.00 W/m2
04:29 -7.9 °C -9.4 °C 1019.5 hPa North 4.8 km/h 8 km/h 89% 0 mm 0.00 W/m2
04:34 -7.9 °C -9.6 °C 1019.5 hPa North 8 km/h 9.7 km/h 88% 0 mm 0.00 W/m2
04:39 -7.8 °C -9.3 °C 1019.5 hPa North 4.8 km/h 9.7 km/h 89% 0 mm 0.00 W/m2
04:44 -7.8 °C -9.5 °C 1019.5 hPa North 4.8 km/h 9.7 km/h 88% 0 mm 0.00 W/m2
04:49 -8 °C -9.6 °C 1019.9 hPa North 3.2 km/h 8 km/h 88% 0 mm 0.00 W/m2
04:54 -8.2 °C -9.8 °C 1019.5 hPa North 3.2 km/h 8 km/h 88% 0 mm 0.00 W/m2
04:59 -8.3 °C -9.9 °C 1019.9 hPa North 4.8 km/h 4.8 km/h 88% 0 mm 0.00 W/m2
05:04 -8.6 °C -10.4 °C 1019.9 hPa North 4.8 km/h 6.4 km/h 87% 0 mm 0.00 W/m2
05:09 -8.9 °C -10.5 °C 1019.9 hPa NW 9.7 km/h 11.3 km/h 88% 0 mm 0.00 W/m2
05:14 -9.3 °C -11.1 °C 1020.2 hPa NNW 9.7 km/h 12.9 km/h 87% 0 mm 0.00 W/m2
05:19 -9.8 °C -11.6 °C 1020.2 hPa NNW 9.7 km/h 12.9 km/h 87% 0 mm 0.00 W/m2
05:24 -10.1 °C -11.9 °C 1020.2 hPa NNW 6.4 km/h 12.9 km/h 87% 0 mm 0.00 W/m2
05:29 -10.3 °C -11.9 °C 1020.2 hPa NNW 6.4 km/h 11.3 km/h 88% 0 mm 0.00 W/m2
05:34 -10.3 °C -11.7 °C 1019.9 hPa North 6.4 km/h 9.7 km/h 89% 0 mm 0.00 W/m2
05:39 -10.2 °C -11.6 °C 1019.9 hPa NNE 9.7 km/h 9.7 km/h 89% 0 mm 0.00 W/m2
05:44 -9.8 °C -11.2 °C 1019.9 hPa NNE 4.8 km/h 12.9 km/h 90% 0 mm 0.00 W/m2
05:49 -9.6 °C -10.9 °C 1019.9 hPa NNE 8 km/h 12.9 km/h 90% 0 mm 0.00 W/m2
05:54 -9.4 °C -10.8 °C 1020.2 hPa North 8 km/h 9.7 km/h 90% 0 mm 0.00 W/m2
05:59 -9.4 °C -10.7 °C 1019.9 hPa North 11.3 km/h 11.3 km/h 90% 0 mm 0.00 W/m2
06:04 -9.3 °C -10.7 °C 1019.9 hPa North 11.3 km/h 12.9 km/h 90% 0 mm 0.00 W/m2
06:09 -9.3 °C -10.7 °C 1020.2 hPa North 6.4 km/h 14.5 km/h 90% 0 mm 0.00 W/m2
06:14 -9.3 °C -10.7 °C 1020.2 hPa North 8 km/h 14.5 km/h 90% 0 mm 0.00 W/m2
06:19 -9.4 °C -10.7 °C 1020.2 hPa NNE 8 km/h 16.1 km/h 90% 0 mm 0.00 W/m2
06:24 -9.4 °C -10.8 °C 1020.2 hPa North 8 km/h 16.1 km/h 90% 0 mm 0.00 W/m2
06:29 -9.5 °C -11 °C 1020.2 hPa North 11.3 km/h 14.5 km/h 89% 0 mm 0.00 W/m2
06:34 -9.6 °C -11.1 °C 1020.5 hPa North 14.5 km/h 17.7 km/h 89% 0 mm 0.00 W/m2
06:39 -9.7 °C -11.2 °C 1020.5 hPa North 12.9 km/h 17.7 km/h 89% 0 mm 0.00 W/m2
06:44 -9.8 °C -11.2 °C 1020.5 hPa North 14.5 km/h 17.7 km/h 89% 0 mm 0.00 W/m2
06:49 -9.9 °C -11.4 °C 1020.5 hPa NNW 6.4 km/h 17.7 km/h 89% 0 mm 0.00 W/m2
06:54 -10.3 °C -11.9 °C 1020.9 hPa NNW 12.9 km/h 14.5 km/h 88% 0 mm 0.00 W/m2
06:59 -10.5 °C -12.1 °C 1020.9 hPa NNW 12.9 km/h 16.1 km/h 88% 0 mm 0.00 W/m2
07:04 -10.7 °C -12.3 °C 1020.9 hPa NNW 11.3 km/h 19.3 km/h 88% 0 mm 0.00 W/m2
07:09 -10.7 °C -12.3 °C 1020.9 hPa North 14.5 km/h 19.3 km/h 88% 0 mm 0.00 W/m2
07:14 -10.8 °C -12.3 °C 1020.9 hPa North 16.1 km/h 19.3 km/h 89% 0 mm 0.00 W/m2
07:19 -10.8 °C -12.3 °C 1020.9 hPa NNW 12.9 km/h 19.3 km/h 89% 0 mm 0.00 W/m2
07:24 -10.8 °C -12.2 °C 1020.9 hPa NNW 11.3 km/h 19.3 km/h 89% 0 mm 0.00 W/m2
07:29 -10.8 °C -12.4 °C 1020.9 hPa North 9.7 km/h 17.7 km/h 88% 0 mm 0.00 W/m2
07:34 -10.8 °C -12.3 °C 1020.9 hPa North 12.9 km/h 14.5 km/h 89% 0 mm 0.00 W/m2
07:39 -10.9 °C -12.5 °C 1020.9 hPa North 11.3 km/h 14.5 km/h 88% 0 mm 0.00 W/m2
07:44 -10.9 °C -12.3 °C 1020.9 hPa North 9.7 km/h 14.5 km/h 89% 0 mm 0.00 W/m2
07:49 -10.9 °C -12.6 °C 1021.2 hPa North 8 km/h 12.9 km/h 88% 0 mm 0.00 W/m2
07:54 -11 °C -12.6 °C 1020.9 hPa North 1.6 km/h 11.3 km/h 88% 0 mm 0.00 W/m2
07:59 -11.1 °C -12.7 °C 1020.9 hPa NE 3.2 km/h 9.7 km/h 88% 0 mm 0.00 W/m2
08:04 -11.1 °C -12.7 °C 1020.9 hPa NNE 6.4 km/h 8 km/h 88% 0 mm 0.00 W/m2
08:09 -11.1 °C -12.7 °C 1020.9 hPa NNE 3.2 km/h 8 km/h 88% 0 mm 0.00 W/m2
08:14 -11.2 °C -12.8 °C 1021.2 hPa NE 1.6 km/h 8 km/h 88% 0 mm 0.00 W/m2
08:19 -11.2 °C -12.8 °C 1021.2 hPa NE 4.8 km/h 11.3 km/h 88% 0 mm 0.00 W/m2
08:24 -11.3 °C -13.1 °C 1021.6 hPa NNW 4.8 km/h 11.3 km/h 87% 0 mm 5.00 W/m2
08:29 -11.4 °C -13.1 °C 1021.6 hPa North 8 km/h 12.9 km/h 87% 0 mm 5.00 W/m2
08:34 -11.4 °C -13.2 °C 1021.9 hPa North 8 km/h 14.5 km/h 87% 0 mm 9.00 W/m2
08:39 -11.6 °C -13.3 °C 1021.9 hPa North 8 km/h 14.5 km/h 87% 0 mm 12.00 W/m2
08:44 -11.6 °C -13.3 °C 1021.9 hPa North 6.4 km/h 11.3 km/h 87% 0 mm 18.00 W/m2
08:49 -11.8 °C -13.7 °C 1022.2 hPa NW 3.2 km/h 9.7 km/h 86% 0 mm 19.00 W/m2
08:54 -11.9 °C -13.7 °C 1022.2 hPa NW 4.8 km/h 8 km/h 87% 0 mm 25.00 W/m2
08:59 -12.1 °C -13.8 °C 1022.6 hPa NNW 11.3 km/h 12.9 km/h 87% 0 mm 30.00 W/m2
09:04 -12.1 °C -13.8 °C 1022.6 hPa NNW 9.7 km/h 12.9 km/h 87% 0 mm 33.00 W/m2
09:09 -12.1 °C -13.8 °C 1022.6 hPa North 9.7 km/h 12.9 km/h 87% 0 mm 39.00 W/m2
09:14 -12.1 °C -13.8 °C 1022.6 hPa North 11.3 km/h 12.9 km/h 87% 0 mm 46.00 W/m2
09:19 -12 °C -13.7 °C 1022.6 hPa NNW 12.9 km/h 12.9 km/h 87% 0 mm 53.00 W/m2
09:24 -11.8 °C -13.6 °C 1022.6 hPa North 9.7 km/h 12.9 km/h 87% 0 mm 81.00 W/m2
09:29 -11.4 °C -13.1 °C 1022.6 hPa North 16.1 km/h 17.7 km/h 88% 0 mm 97.00 W/m2
09:34 -11.2 °C -12.9 °C 1022.9 hPa North 8 km/h 17.7 km/h 87% 0 mm 105.00 W/m2
09:39 -11.1 °C -13 °C 1022.9 hPa North 8 km/h 17.7 km/h 86% 0 mm 116.00 W/m2
09:44 -10.9 °C -12.8 °C 1022.9 hPa North 12.9 km/h 17.7 km/h 86% 0 mm 134.00 W/m2
09:49 -10.6 °C -12.4 °C 1023.2 hPa NNW 11.3 km/h 17.7 km/h 86% 0 mm 158.00 W/m2
09:54 -10.3 °C -12.5 °C 1023.2 hPa North 12.9 km/h 17.7 km/h 84% 0 mm 186.00 W/m2
09:59 -10.2 °C -12.3 °C 1023.2 hPa NNE 6.4 km/h 19.3 km/h 84% 0 mm 220.00 W/m2
10:04 -9.8 °C -12.1 °C 1023.6 hPa North 6.4 km/h 19.3 km/h 83% 0 mm 253.00 W/m2
10:09 -9.4 °C -11.9 °C 1023.6 hPa North 12.9 km/h 16.1 km/h 82% 0 mm 287.00 W/m2
10:14 -9.3 °C -11.9 °C 1023.6 hPa NNW 9.7 km/h 16.1 km/h 81% 0 mm 329.00 W/m2
10:19 -9.1 °C -11.9 °C 1023.6 hPa NNE 11.3 km/h 16.1 km/h 80% 0 mm 343.00 W/m2
10:24 -8.8 °C -11.8 °C 1023.6 hPa North 11.3 km/h 16.1 km/h 79% 0 mm 341.00 W/m2
10:29 -8.6 °C -11.8 °C 1023.6 hPa North 11.3 km/h 16.1 km/h 78% 0 mm 322.00 W/m2
10:34 -8.4 °C -11.6 °C 1023.6 hPa North 14.5 km/h 17.7 km/h 78% 0 mm 316.00 W/m2
10:39 -8.4 °C -11.8 °C 1023.9 hPa North 4.8 km/h 17.7 km/h 77% 0 mm 311.00 W/m2
10:44 -8.4 °C -11.7 °C 1023.6 hPa NNW 11.3 km/h 16.1 km/h 77% 0 mm 315.00 W/m2
10:49 -8.7 °C -12.2 °C 1023.9 hPa North 6.4 km/h 16.1 km/h 76% 0 mm 281.00 W/m2
10:54 -9.2 °C -12.6 °C 1023.9 hPa North 9.7 km/h 14.5 km/h 76% 0 mm 155.00 W/m2
10:59 -9.3 °C -12.4 °C 1024.3 hPa North 11.3 km/h 16.1 km/h 78% 0 mm 345.00 W/m2
11:04 -8.9 °C -11.9 °C 1024.3 hPa North 9.7 km/h 16.1 km/h 79% 0 mm 436.00 W/m2
11:09 -8.3 °C -11.3 °C 1024.3 hPa North 11.3 km/h 16.1 km/h 79% 0 mm 431.00 W/m2
11:14 -8.1 °C -11.4 °C 1024.3 hPa North 14.5 km/h 16.1 km/h 77% 0 mm 468.00 W/m2
11:19 -7.7 °C -11.2 °C 1024.3 hPa NNE 16.1 km/h 20.9 km/h 76% 0 mm 431.00 W/m2
11:24 -7.7 °C -11.3 °C 1023.9 hPa North 14.5 km/h 22.5 km/h 75% 0 mm 299.00 W/m2
11:29 -7.7 °C -11.3 °C 1023.9 hPa NNE 17.7 km/h 22.5 km/h 75% 0 mm 299.00 W/m2
11:34 -7.9 °C -11.7 °C 1024.3 hPa North 17.7 km/h 20.9 km/h 74% 0 mm 178.00 W/m2
11:39 -8.3 °C -12.2 °C 1023.9 hPa NNE 16.1 km/h 19.3 km/h 74% 0 mm 169.00 W/m2
11:44 -8.8 °C -12.6 °C 1023.9 hPa NNE 12.9 km/h 19.3 km/h 74% 0 mm 171.00 W/m2
11:49 -8.9 °C -12.4 °C 1023.9 hPa NNE 8 km/h 19.3 km/h 76% 0 mm 169.00 W/m2
11:54 -9.1 °C -12.6 °C 1023.9 hPa NNE 12.9 km/h 16.1 km/h 76% 0 mm 162.00 W/m2
11:59 -9.3 °C -12.8 °C 1023.9 hPa NE 8 km/h 16.1 km/h 76% 0 mm 155.00 W/m2
12:04 -9.5 °C -12.9 °C 1024.3 hPa North 11.3 km/h 14.5 km/h 76% 0 mm 155.00 W/m2
12:09 -9.7 °C -12.9 °C 1024.3 hPa NNE 9.7 km/h 16.1 km/h 77% 0 mm 179.00 W/m2
12:14 -9.7 °C -13 °C 1024.3 hPa NNE 12.9 km/h 16.1 km/h 77% 0 mm 135.00 W/m2
12:19 -9.9 °C -13.2 °C 1024.3 hPa North 8 km/h 14.5 km/h 77% 0 mm 253.00 W/m2
12:24 -9.7 °C -12.8 °C 1023.9 hPa NNW 9.7 km/h 14.5 km/h 78% 0 mm 371.00 W/m2
12:29 -9.4 °C -12.5 °C 1023.9 hPa North 12.9 km/h 14.5 km/h 78% 0 mm 387.00 W/m2
12:34 -9.1 °C -12.4 °C 1023.9 hPa North 6.4 km/h 14.5 km/h 77% 0 mm 309.00 W/m2
12:39 -9.1 °C -12.5 °C 1024.3 hPa North 12.9 km/h 14.5 km/h 76% 0 mm 316.00 W/m2
12:44 -9 °C -12.4 °C 1024.3 hPa NNE 12.9 km/h 16.1 km/h 76% 0 mm 309.00 W/m2
12:49 -9.2 °C -12.8 °C 1024.3 hPa NNE 9.7 km/h 16.1 km/h 75% 0 mm 158.00 W/m2
12:54 -9.4 °C -13.1 °C 1024.3 hPa NNE 12.9 km/h 16.1 km/h 75% 0 mm 230.00 W/m2
12:59 -9.4 °C -12.9 °C 1024.3 hPa North 11.3 km/h 16.1 km/h 76% 0 mm 320.00 W/m2
13:04 -9.1 °C -12.4 °C 1024.3 hPa NNE 12.9 km/h 16.1 km/h 77% 0 mm 367.00 W/m2
13:09 -8.9 °C -12.3 °C 1024.3 hPa NNE 9.7 km/h 16.1 km/h 76% 0 mm 274.00 W/m2
13:14 -8.9 °C -12.5 °C 1024.3 hPa NNE 8 km/h 16.1 km/h 75% 0 mm 195.00 W/m2
13:19 -8.9 °C -12.6 °C 1024.6 hPa NNE 9.7 km/h 16.1 km/h 75% 0 mm 292.00 W/m2
13:24 -8.8 °C -12.4 °C 1024.6 hPa NE 12.9 km/h 12.9 km/h 75% 0 mm 213.00 W/m2
13:29 -8.8 °C -12.6 °C 1024.6 hPa NE 8 km/h 14.5 km/h 74% 0 mm 341.00 W/m2
13:34 -8.8 °C -12.6 °C 1024.6 hPa North 8 km/h 14.5 km/h 74% 0 mm 346.00 W/m2
13:39 -8.6 °C -12.2 °C 1024.6 hPa NNW 8 km/h 12.9 km/h 75% 0 mm 341.00 W/m2
13:44 -8.6 °C -12.3 °C 1024.6 hPa NNW 9.7 km/h 14.5 km/h 74% 0 mm 338.00 W/m2
13:49 -8.8 °C -12.7 °C 1024.6 hPa NNW 14.5 km/h 17.7 km/h 73% 0 mm 334.00 W/m2
13:54 -9.3 °C -13.3 °C 1024.6 hPa North 14.5 km/h 17.7 km/h 73% 0 mm 329.00 W/m2
13:59 -9.6 °C -13.2 °C 1024.6 hPa North 11.3 km/h 19.3 km/h 75% 0 mm 323.00 W/m2
14:04 -9.8 °C -13.2 °C 1024.6 hPa NNW 12.9 km/h 19.3 km/h 76% 0 mm 316.00 W/m2
14:09 -9.7 °C -13.2 °C 1024.6 hPa North 12.9 km/h 19.3 km/h 76% 0 mm 315.00 W/m2
14:14 -9.6 °C -12.8 °C 1024.6 hPa NNW 16.1 km/h 20.9 km/h 77% 0 mm 306.00 W/m2
14:19 -9.4 °C -12.7 °C 1024.9 hPa NNW 16.1 km/h 20.9 km/h 77% 0 mm 301.00 W/m2
14:24 -9.3 °C -12.6 °C 1024.9 hPa North 14.5 km/h 20.9 km/h 77% 0 mm 299.00 W/m2
14:29 -9.2 °C -12.6 °C 1024.9 hPa North 12.9 km/h 24.1 km/h 76% 0 mm 288.00 W/m2
14:34 -9.1 °C -12.6 °C 1024.9 hPa NNW 19.3 km/h 24.1 km/h 76% 0 mm 281.00 W/m2
14:39 -9.2 °C -12.7 °C 1024.9 hPa North 14.5 km/h 22.5 km/h 76% 0 mm 272.00 W/m2
14:44 -9.2 °C -12.6 °C 1024.9 hPa North 16.1 km/h 20.9 km/h 76% 0 mm 265.00 W/m2
14:49 -9.4 °C -12.9 °C 1024.9 hPa NNW 19.3 km/h 20.9 km/h 76% 0 mm 258.00 W/m2
14:54 -9.6 °C -12.8 °C 1024.9 hPa NNW 19.3 km/h 22.5 km/h 77% 0 mm 248.00 W/m2
14:59 -9.5 °C -12.6 °C 1024.9 hPa NNW 12.9 km/h 22.5 km/h 78% 0 mm 236.00 W/m2
15:04 -9.6 °C -12.8 °C 1025.3 hPa NNW 14.5 km/h 20.9 km/h 77% 0 mm 225.00 W/m2
15:09 -9.4 °C -12.5 °C 1025.3 hPa North 16.1 km/h 20.9 km/h 78% 0 mm 213.00 W/m2
15:14 -9.1 °C -12.2 °C 1025.3 hPa North 11.3 km/h 20.9 km/h 78% 0 mm 204.00 W/m2
15:19 -8.9 °C -12.2 °C 1025.3 hPa NNW 17.7 km/h 19.3 km/h 77% 0 mm 193.00 W/m2
15:24 -9.1 °C -12.3 °C 1025.3 hPa NNW 12.9 km/h 19.3 km/h 77% 0 mm 181.00 W/m2
15:29 -8.9 °C -12.2 °C 1025.3 hPa North 14.5 km/h 22.5 km/h 77% 0 mm 169.00 W/m2
15:34 -9 °C -12.3 °C 1025.6 hPa NNW 12.9 km/h 22.5 km/h 77% 0 mm 156.00 W/m2
15:39 -8.9 °C -12.2 °C 1025.6 hPa North 14.5 km/h 20.9 km/h 77% 0 mm 144.00 W/m2
15:44 -8.9 °C -12.2 °C 1025.6 hPa NNE 12.9 km/h 22.5 km/h 77% 0 mm 134.00 W/m2
15:49 -9 °C -12.4 °C 1025.6 hPa North 16.1 km/h 22.5 km/h 76% 0 mm 123.00 W/m2
15:54 -9.3 °C -12.6 °C 1025.6 hPa NNW 14.5 km/h 20.9 km/h 77% 0 mm 111.00 W/m2
15:59 -9.4 °C -12.6 °C 1026 hPa North 9.7 km/h 20.9 km/h 78% 0 mm 100.00 W/m2
16:04 -9.4 °C -12.6 °C 1026 hPa NNW 11.3 km/h 19.3 km/h 78% 0 mm 90.00 W/m2
16:09 -9.7 °C -12.8 °C 1026 hPa NNW 8 km/h 19.3 km/h 78% 0 mm 77.00 W/m2
16:14 -9.9 °C -12.9 °C 1026 hPa NNW 8 km/h 19.3 km/h 79% 0 mm 67.00 W/m2
16:19 -10.1 °C -12.8 °C 1026.3 hPa NNW 11.3 km/h 19.3 km/h 80% 0 mm 63.00 W/m2
16:24 -10.2 °C -13.1 °C 1026.3 hPa NNW 14.5 km/h 19.3 km/h 79% 0 mm 54.00 W/m2
16:29 -10.2 °C -13 °C 1026.3 hPa NNW 9.7 km/h 19.3 km/h 80% 0 mm 44.00 W/m2
16:34 -10.3 °C -13.1 °C 1026.3 hPa NNW 14.5 km/h 17.7 km/h 80% 0 mm 37.00 W/m2
16:39 -10.4 °C -13.2 °C 1026.3 hPa NNW 14.5 km/h 17.7 km/h 80% 0 mm 32.00 W/m2
16:44 -10.4 °C -13.1 °C 1026.3 hPa NNW 14.5 km/h 17.7 km/h 81% 0 mm 25.00 W/m2
16:49 -10.6 °C -13.4 °C 1026.3 hPa North 14.5 km/h 17.7 km/h 80% 0 mm 21.00 W/m2
16:54 -10.8 °C -13.4 °C 1026.6 hPa NNW 14.5 km/h 17.7 km/h 81% 0 mm 18.00 W/m2
16:59 -11.1 °C -13.7 °C 1026.6 hPa North 8 km/h 17.7 km/h 81% 0 mm 19.00 W/m2
17:04 -11.3 °C -13.7 °C 1026.6 hPa NNW 12.9 km/h 19.3 km/h 82% 0 mm 12.00 W/m2
17:09 -11.4 °C -13.8 °C 1026.6 hPa NW 14.5 km/h 19.3 km/h 82% 0 mm 9.00 W/m2
17:14 -11.5 °C -13.8 °C 1026.6 hPa NNW 16.1 km/h 17.7 km/h 83% 0 mm 5.00 W/m2
17:19 -11.6 °C -13.7 °C 1026.6 hPa North 16.1 km/h 22.5 km/h 84% 0 mm 5.00 W/m2
17:24 -11.6 °C -13.7 °C 1026.6 hPa NNE 22.5 km/h 22.5 km/h 84% 0 mm 0.00 W/m2
17:29 -11.6 °C -13.8 °C 1026.6 hPa North 17.7 km/h 22.5 km/h 84% 0 mm 0.00 W/m2
17:34 -11.6 °C -13.6 °C 1027 hPa North 14.5 km/h 22.5 km/h 85% 0 mm 0.00 W/m2
17:39 -11.6 °C -13.6 °C 1027 hPa North 14.5 km/h 20.9 km/h 85% 0 mm 0.00 W/m2
17:44 -11.6 °C -13.6 °C 1027 hPa North 11.3 km/h 19.3 km/h 85% 0 mm 0.00 W/m2
17:49 -11.6 °C -13.6 °C 1027 hPa NNE 16.1 km/h 19.3 km/h 85% 0 mm 0.00 W/m2
17:54 -11.6 °C -13.4 °C 1027.3 hPa NNE 14.5 km/h 19.3 km/h 86% 0 mm 0.00 W/m2
17:59 -11.5 °C -13.4 °C 1027.3 hPa NNE 9.7 km/h 17.7 km/h 86% 0 mm 0.00 W/m2
18:04 -11.5 °C -13.4 °C 1027.3 hPa NNE 17.7 km/h 19.3 km/h 86% 0 mm 0.00 W/m2
18:09 -11.5 °C -13.4 °C 1027.3 hPa NNE 17.7 km/h 19.3 km/h 86% 0 mm 0.00 W/m2
18:14 -11.5 °C -13.4 °C 1027.3 hPa NNE 17.7 km/h 19.3 km/h 86% 0 mm 0.00 W/m2
18:19 -11.5 °C -13.4 °C 1027.3 hPa NNE 17.7 km/h 19.3 km/h 86% 0 mm 0.00 W/m2
18:24 -11.5 °C -13.4 °C 1027.3 hPa NE 12.9 km/h 22.5 km/h 86% 0 mm 0.00 W/m2
18:29 -11.5 °C -13.2 °C 1027.3 hPa NNE 11.3 km/h 22.5 km/h 87% 0 mm 0.00 W/m2
18:34 -11.5 °C -13.2 °C 1027.3 hPa NNE 17.7 km/h 19.3 km/h 87% 0 mm 0.00 W/m2
18:39 -11.4 °C -13.2 °C 1027.3 hPa North 16.1 km/h 20.9 km/h 87% 0 mm 0.00 W/m2
18:44 -11.4 °C -13.2 °C 1027.3 hPa NNE 17.7 km/h 22.5 km/h 87% 0 mm 0.00 W/m2
18:49 -11.4 °C -13.2 °C 1027.3 hPa NNE 14.5 km/h 22.5 km/h 87% 0 mm 0.00 W/m2
18:54 -11.4 °C -13.2 °C 1027.3 hPa NNE 11.3 km/h 24.1 km/h 87% 0 mm 0.00 W/m2
18:59 -11.5 °C -13.2 °C 1027.3 hPa NNE 11.3 km/h 24.1 km/h 87% 0 mm 0.00 W/m2
19:04 -11.4 °C -13.1 °C 1027.7 hPa NE 9.7 km/h 19.3 km/h 88% 0 mm 0.00 W/m2
19:09 -11.4 °C -13.2 °C 1027.3 hPa NE 9.7 km/h 17.7 km/h 87% 0 mm 0.00 W/m2
19:14 -11.4 °C -13.2 °C 1027.3 hPa NE 8 km/h 16.1 km/h 87% 0 mm 0.00 W/m2
19:19 -11.4 °C -13.2 °C 1027.7 hPa NNE 11.3 km/h 16.1 km/h 87% 0 mm 0.00 W/m2
19:24 -11.4 °C -13 °C 1027.7 hPa North 12.9 km/h 17.7 km/h 88% 0 mm 0.00 W/m2
19:29 -11.4 °C -13 °C 1027.7 hPa NNE 12.9 km/h 19.3 km/h 88% 0 mm 0.00 W/m2
19:34 -11.4 °C -13.1 °C 1027.7 hPa NNE 8 km/h 20.9 km/h 87% 0 mm 0.00 W/m2
19:39 -11.4 °C -13.1 °C 1028 hPa NNE 8 km/h 20.9 km/h 87% 0 mm 0.00 W/m2
19:44 -11.4 °C -13.1 °C 1028 hPa NNE 8 km/h 20.9 km/h 88% 0 mm 0.00 W/m2
19:49 -11.4 °C -13 °C 1028 hPa NE 9.7 km/h 14.5 km/h 88% 0 mm 0.00 W/m2
19:54 -11.3 °C -12.9 °C 1028 hPa NE 8 km/h 14.5 km/h 88% 0 mm 0.00 W/m2
19:59 -11.3 °C -12.9 °C 1028 hPa NE 4.8 km/h 12.9 km/h 88% 0 mm 0.00 W/m2
20:04 -11.3 °C -12.9 °C 1028 hPa NE 9.7 km/h 11.3 km/h 88% 0 mm 0.00 W/m2
20:09 -11.3 °C -12.9 °C 1028 hPa NE 9.7 km/h 11.3 km/h 88% 0 mm 0.00 W/m2
20:14 -11.3 °C -13.1 °C 1028.3 hPa North 8 km/h 11.3 km/h 87% 0 mm 0.00 W/m2
20:19 -11.3 °C -12.9 °C 1028.3 hPa North 8 km/h 12.9 km/h 88% 0 mm 0.00 W/m2
20:24 -11.3 °C -12.9 °C 1028.3 hPa NNE 11.3 km/h 16.1 km/h 88% 0 mm 0.00 W/m2
20:29 -11.3 °C -12.9 °C 1028.3 hPa NNE 6.4 km/h 16.1 km/h 88% 0 mm 0.00 W/m2
20:34 -11.3 °C -12.9 °C 1028.3 hPa North 11.3 km/h 14.5 km/h 88% 0 mm 0.00 W/m2
20:39 -11.4 °C -13 °C 1028.7 hPa North 9.7 km/h 12.9 km/h 88% 0 mm 0.00 W/m2
20:44 -11.4 °C -13 °C 1028.7 hPa North 9.7 km/h 12.9 km/h 88% 0 mm 0.00 W/m2
20:49 -11.4 °C -13 °C 1028.7 hPa NNE 9.7 km/h 12.9 km/h 88% 0 mm 0.00 W/m2
20:54 -11.4 °C -12.8 °C 1028.7 hPa North 11.3 km/h 12.9 km/h 89% 0 mm 0.00 W/m2
20:59 -11.4 °C -12.9 °C 1028.7 hPa North 6.4 km/h 12.9 km/h 89% 0 mm 0.00 W/m2
21:04 -11.4 °C -12.9 °C 1028.7 hPa NNW 9.7 km/h 12.9 km/h 89% 0 mm 0.00 W/m2
21:09 -11.5 °C -12.9 °C 1028.7 hPa North 12.9 km/h 16.1 km/h 89% 0 mm 0.00 W/m2
21:14 -11.5 °C -12.9 °C 1029 hPa North 8 km/h 16.1 km/h 89% 0 mm 0.00 W/m2
21:19 -11.6 °C -13 °C 1029 hPa North 8 km/h 14.5 km/h 89% 0 mm 0.00 W/m2
21:24 -11.6 °C -13 °C 1029 hPa NNE 8 km/h 14.5 km/h 89% 0 mm 0.00 W/m2
21:29 -11.6 °C -13 °C 1029 hPa North 8 km/h 11.3 km/h 89% 0 mm 0.00 W/m2
21:34 -11.6 °C -13 °C 1029 hPa North 4.8 km/h 9.7 km/h 89% 0 mm 0.00 W/m2
21:39 -11.6 °C -13 °C 1029 hPa NNE 6.4 km/h 9.7 km/h 89% 0 mm 0.00 W/m2
21:44 -11.6 °C -13 °C 1029 hPa North 8 km/h 9.7 km/h 89% 0 mm 0.00 W/m2
21:49 -11.6 °C -13 °C 1029 hPa NNW 6.4 km/h 8 km/h 89% 0 mm 0.00 W/m2
21:54 -11.6 °C -13 °C 1029 hPa NNE 9.7 km/h 12.9 km/h 89% 0 mm 0.00 W/m2
21:59 -11.6 °C -13 °C 1029 hPa North 8 km/h 12.9 km/h 89% 0 mm 0.00 W/m2
22:04 -11.6 °C -13 °C 1029 hPa North 9.7 km/h 11.3 km/h 89% 0 mm 0.00 W/m2
22:09 -11.6 °C -13 °C 1029 hPa NNW 9.7 km/h 12.9 km/h 89% 0 mm 0.00 W/m2
22:14 -11.6 °C -13 °C 1029 hPa North 8 km/h 12.9 km/h 89% 0 mm 0.00 W/m2
22:19 -11.6 °C -13 °C 1029.3 hPa North 4.8 km/h 11.3 km/h 89% 0 mm 0.00 W/m2
22:24 -11.6 °C -12.9 °C 1029.3 hPa North 9.7 km/h 12.9 km/h 90% 0 mm 0.00 W/m2
22:29 -11.6 °C -12.9 °C 1029.3 hPa NNW 9.7 km/h 12.9 km/h 90% 0 mm 0.00 W/m2
22:34 -11.6 °C -12.9 °C 1029.3 hPa North 8 km/h 11.3 km/h 90% 0 mm 0.00 W/m2
22:39 -11.6 °C -12.9 °C 1029 hPa North 12.9 km/h 14.5 km/h 90% 0 mm 0.00 W/m2
22:44 -11.5 °C -12.8 °C 1029.3 hPa NNE 6.4 km/h 14.5 km/h 90% 0 mm 0.00 W/m2
22:49 -11.5 °C -12.8 °C 1029.3 hPa North 9.7 km/h 12.9 km/h 90% 0 mm 0.00 W/m2
22:54 -11.5 °C -12.8 °C 1029.3 hPa North 8 km/h 12.9 km/h 90% 0 mm 0.00 W/m2
22:59 -11.5 °C -12.8 °C 1029.3 hPa North 11.3 km/h 12.9 km/h 90% 0 mm 0.00 W/m2
23:04 -11.5 °C -12.8 °C 1029.3 hPa NNW 8 km/h 12.9 km/h 90% 0 mm 0.00 W/m2
23:09 -11.5 °C -12.8 °C 1029.3 hPa North 6.4 km/h 11.3 km/h 90% 0 mm 0.00 W/m2
23:14 -11.5 °C -12.8 °C 1029.3 hPa NNE 8 km/h 14.5 km/h 90% 0 mm 0.00 W/m2
23:19 -11.5 °C -12.8 °C 1029.3 hPa North 11.3 km/h 14.5 km/h 90% 0 mm 0.00 W/m2
23:24 -11.5 °C -12.8 °C 1029.3 hPa North 9.7 km/h 14.5 km/h 90% 0 mm 0.00 W/m2
23:29 -11.5 °C -12.8 °C 1029.3 hPa North 8 km/h 12.9 km/h 90% 0 mm 0.00 W/m2
23:34 -11.5 °C -12.8 °C 1029.3 hPa North 11.3 km/h 14.5 km/h 90% 0 mm 0.00 W/m2
23:39 -11.4 °C -12.8 °C 1029.3 hPa North 11.3 km/h 14.5 km/h 90% 0 mm 0.00 W/m2
23:44 -11.4 °C -12.8 °C 1029.3 hPa North 8 km/h 12.9 km/h 90% 0 mm 0.00 W/m2
23:49 -11.4 °C -12.8 °C 1029.3 hPa North 11.3 km/h 14.5 km/h 90% 0 mm 0.00 W/m2
23:54 -11.4 °C -12.8 °C 1029.3 hPa North 8 km/h 14.5 km/h 90% 0 mm 0.00 W/m2
23:59 -11.4 °C -12.8 °C 1029.3 hPa North 9.7 km/h 14.5 km/h 90% 0 mm 0.00 W/m2
Bismarck, North Dakota, USA
Compliments of Weather Underground - 4 mb